• Join FlightAware (Why Join?)
  • Login
  • US Flag 
02:25PM EDT


 

Airport Tracker/Info


-or-


 

Live Flight TrackerFlight Track Log ✈ N516QS ✈ 17-Apr-2013 ✈ KBMI - KCLE

Flight Track Log - Related Links

Times and Time Zones

All times are in EDT time to prevent confusion due to time zone crossing. See the N516QS flight status page for this flight to view local times or setup timezone preferences in your user account.

Time Position Orientation Groundspeed Altitude Reporting Facility
EDT Latitude Longitude Course Direction KTS MPH feet Rate Location/Type
11:03AM 40.5072 -88.8439 66° East 222 255 3,500  Level Chicago Center
11:04AM 40.5539 -88.7742 49° Northeast 243 280 7,500 3,120 Climbing Chicago Center
11:05AM 40.5997 -88.6464 65° Northeast 300 345 10,000 1,800 Climbing Chicago Center
11:07AM 40.6428 -88.5250 65° Northeast 352 405 11,300 2,280 Climbing Chicago Center
11:08AM 40.6911 -88.3967 64° Northeast 385 443 14,700 2,580 Climbing Chicago Center
11:09AM 40.7454 -88.1640 66° East  Level FlightAware Approximate
11:09AM 40.7436 -88.2544 64° Northeast 429 494 16,600  Level Chicago Center
11:10AM 40.7961 -88.1114 64° Northeast 438 504 17,400 780 Climbing Chicago Center
11:11AM 40.8472 -87.9672 65° Northeast 437 503 18,300 960 Climbing Chicago Center
11:12AM 40.9000 -87.8219 64° Northeast 444 511 19,400 1,080 Climbing Chicago Center
11:13AM 40.9650 -87.6444 64° Northeast 451 519 20,600 1,260 Climbing Chicago Center
11:14AM 41.0183 -87.4944 65° Northeast 456 525 22,100 1,140 Climbing Chicago Center
11:15AM 41.0731 -87.3386 65° Northeast 470 541 23,000 2,340 Climbing Chicago Center
11:16AM 41.1286 -87.1842 64° Northeast 470 541 26,900 3,180 Climbing Chicago Center
11:17AM 41.1819 -87.0317 65° Northeast 462 532 29,500 2,100 Climbing Chicago Center
11:18AM 41.2392 -86.8664 65° Northeast 489 563 31,300 1,620 Climbing Chicago Center
11:19AM 41.3106 -86.6603 65° Northeast 508 585 32,900 780 Climbing Chicago Center
11:20AM 41.3697 -86.4833 66° East 518 596 32,900  Level Chicago Center
11:21AM 41.4292 -86.3097 65° Northeast 519 597 32,900  Level Chicago Center
11:22AM 41.4883 -86.1361 65° Northeast 517 595 32,900  Level Chicago Center
11:23AM 41.5425 -85.9561 68° East 519 597 33,000  Climbing Chicago Center
11:24AM 41.5808 -85.7669 75° East 525 604 33,000  Level Chicago Center
11:25AM 41.6214 -85.5808 74° East 524 603 33,000  Level Chicago Center
11:26AM 41.6692 -85.3608 74° East 523 602 33,000  Level Chicago Center
11:27AM 41.7044 -85.1850 75° East 537 618 33,000 -60 Level Chicago Center
11:28AM 41.7450 -84.9928 74° East 536 617 32,900  Descending Chicago Center
11:29AM 41.7942 -84.7586 74° East 525 604 33,000  Climbing Cleveland Center
11:30AM 41.8303 -84.5686 76° East 525 604 32,900  Descending Cleveland Center
11:31AM 41.8681 -84.3756 75° East 525 604 33,000 -60 Climbing Cleveland Center
11:32AM 41.9006 -84.2044 76° East 525 604 32,800 -1,200 Descending Cleveland Center
11:33AM 41.9378 -84.0167 75° East 525 604 30,600 -2,160 Descending Cleveland Center
11:34AM 41.9722 -83.8342 76° East 525 604 28,500 -2,100 Descending Cleveland Center
11:35AM 42.0086 -83.6517 75° East 514 592 26,400 -2,220 Descending Cleveland Center
11:36AM 42.0408 -83.4519 78° East 501 577 24,100 -1,980 Descending Cleveland Center
11:37AM 42.0325 -83.2753 94° East 478 550 22,500 -1,800 Descending Cleveland Center
11:38AM 42.0136 -83.1039 98° East 478 550 20,500 -1,980 Descending Cleveland Center
11:39AM 41.9981 -82.9442 97° East 465 535 18,600 -1,860 Descending Cleveland Center
11:40AM 41.9806 -82.7842 98° East 447 514 16,800 -1,740 Descending Cleveland Center
11:41AM 41.9736 -82.7058 97° East 420 483 16,000 -1,740 Descending Cleveland Center
11:41AM 41.9647 -82.6300 99° East 426 490 15,100 -1,860 Descending Cleveland Center
11:42AM 41.9478 -82.5261 102° East 404 465 13,800 -1,740 Descending Cleveland Center
11:42AM 41.9381 -82.4842 107° East 414 476 13,400 -1,680 Descending Cleveland Center
11:43AM 41.9022 -82.3769 114° Southeast 387 445 12,000 -1,560 Descending Cleveland Center
11:44AM 41.8583 -82.2336 112° Southeast 366 421 10,300 -960 Descending Cleveland Center
11:45AM 41.8033 -82.1403 128° Southeast 377 434 10,000 -180 Descending Cleveland Center
11:46AM 41.7211 -82.0575 143° Southeast 355 409 10,000 -600 Level Cleveland Center
11:47AM 41.6408 -81.9864 146° Southeast 303 349 8,800 -1,380 Descending Cleveland Center
11:48AM 41.5831 -81.9294 144° Southeast 300 345 7,500 -960 Descending Cleveland Center
11:49AM 41.5147 -81.8808 152° Southeast 275 316 7,000 -780 Descending Cleveland Center
11:50AM 41.4517 -81.9406 215° Southwest 234 269 5,900 -1,320 Descending Cleveland Center
11:51AM 41.4089 -82.0144 232° Southwest 252 290 4,400 -1,320 Descending Cleveland Center
11:52AM 41.3586 -82.0411 202° Southwest 219 252 3,400 -780 Descending Cleveland Center
11:54AM 41.3622 -81.9250 88° East 142 163 2,100 -720 Descending Cleveland Center
11:55AM 41.3856 -81.8950 44° Northeast 121 139 1,400 -780 Descending Cleveland Center
11:57AM 41.4000 -81.8500 129° Southeast  Level FlightAware Approximate
12:04PM 41.4094 -81.8547 129° Southeast  Level Estimated